Time,TemperatureF,DewpointF,PressureIn,WindDirection,WindDirectionDegrees,WindSpeedMPH,WindSpeedGustMPH,Humidity,HourlyPrecipIn,Conditions,Clouds,dailyrainin,SoftwareType,DateUTC
2013-01-11 00:03:00,41.0,28.0,30.19,SW,217,3.0,8.0,59,0.00,,,0.00,,2013-01-11 05:03:00,
2013-01-11 00:13:00,41.0,28.0,30.19,SW,217,3.0,8.0,59,0.00,,,0.00,,2013-01-11 05:13:00,
2013-01-11 00:22:00,41.0,27.0,30.18,SE,128,5.0,11.0,57,0.00,,,0.00,,2013-01-11 05:22:00,
2013-01-11 00:33:00,42.0,27.0,30.17,WSW,256,1.0,10.0,56,0.00,,,0.00,,2013-01-11 05:33:00,
2013-01-11 00:43:00,42.0,27.0,30.17,WSW,256,1.0,10.0,56,0.00,,,0.00,,2013-01-11 05:43:00,
2013-01-11 00:53:00,42.0,27.0,30.16,East,81,6.0,11.0,56,0.00,,,0.00,,2013-01-11 05:53:00,
2013-01-11 01:03:00,42.0,27.0,30.16,SSE,159,3.0,8.0,56,0.00,,,0.00,,2013-01-11 06:03:00,
2013-01-11 01:12:00,42.0,27.0,30.16,SSE,159,3.0,8.0,56,0.00,,,0.00,,2013-01-11 06:12:00,
2013-01-11 01:22:00,42.0,28.0,30.15,SE,127,6.0,9.0,57,0.00,,,0.00,,2013-01-11 06:22:00,
2013-01-11 01:32:00,42.0,27.0,30.14,SSE,156,10.0,12.0,56,0.00,,,0.00,,2013-01-11 06:32:00,
2013-01-11 01:42:00,42.0,27.0,30.14,SSE,156,10.0,12.0,56,0.00,,,0.00,,2013-01-11 06:42:00,
2013-01-11 01:52:00,43.0,28.0,30.13,East,84,5.0,12.0,56,0.00,,,0.00,,2013-01-11 06:52:00,
2013-01-11 02:02:00,43.0,28.0,30.12,ESE,110,3.0,10.0,55,0.00,,,0.00,,2013-01-11 07:02:00,
2013-01-11 02:12:00,44.0,28.0,30.11,SE,140,0.0,11.0,54,0.00,,,0.00,,2013-01-11 07:12:00,
2013-01-11 02:22:00,44.0,28.0,30.11,SE,140,0.0,11.0,54,0.00,,,0.00,,2013-01-11 07:22:00,
2013-01-11 02:32:00,44.0,28.0,30.11,ESE,111,6.0,10.0,54,0.00,,,0.00,,2013-01-11 07:32:00,
2013-01-11 02:42:00,45.0,29.0,30.11,South,180,6.0,11.0,53,0.00,,,0.00,,2013-01-11 07:42:00,
2013-01-11 02:52:00,45.0,29.0,30.11,South,180,6.0,11.0,53,0.00,,,0.00,,2013-01-11 07:52:00,
2013-01-11 03:02:00,45.0,29.0,30.11,SSE,160,4.0,9.0,53,0.00,,,0.00,,2013-01-11 08:02:00,
2013-01-11 03:12:00,46.0,30.0,30.09,SE,136,2.0,10.0,54,0.00,,,0.00,,2013-01-11 08:12:00,
2013-01-11 03:22:00,46.0,30.0,30.09,SE,136,2.0,10.0,54,0.00,,,0.00,,2013-01-11 08:22:00,
2013-01-11 03:32:00,46.0,31.0,30.09,ESE,109,4.0,10.0,55,0.00,,,0.00,,2013-01-11 08:32:00,
2013-01-11 03:42:00,46.0,31.0,30.09,ESE,109,4.0,10.0,55,0.00,,,0.00,,2013-01-11 08:42:00,
2013-01-11 03:53:00,46.0,31.0,30.08,SE,132,8.0,12.0,56,0.00,,,0.00,,2013-01-11 08:53:00,
2013-01-11 04:02:00,47.0,32.0,30.07,ESE,111,6.0,12.0,56,0.00,,,0.00,,2013-01-11 09:02:00,
2013-01-11 04:12:00,47.0,32.0,30.07,ESE,111,6.0,12.0,56,0.00,,,0.00,,2013-01-11 09:12:00,
2013-01-11 04:23:00,48.0,34.0,30.06,SE,132,4.0,15.0,57,0.00,,,0.00,,2013-01-11 09:23:00,
2013-01-11 04:32:00,48.0,34.0,30.04,South,183,8.0,13.0,57,0.00,,,0.00,,2013-01-11 09:32:00,
2013-01-11 04:42:00,48.0,34.0,30.04,South,183,8.0,13.0,57,0.00,,,0.00,,2013-01-11 09:42:00,
2013-01-11 04:52:00,47.0,33.0,30.03,South,180,4.0,13.0,58,0.00,,,0.00,,2013-01-11 09:52:00,
2013-01-11 05:02:00,47.0,33.0,30.02,SSE,168,10.0,12.0,59,0.00,,,0.00,,2013-01-11 10:02:00,
2013-01-11 05:12:00,47.0,33.0,30.02,SSE,168,10.0,12.0,59,0.00,,,0.00,,2013-01-11 10:12:00,
2013-01-11 05:22:00,48.0,36.0,30.02,SSE,155,6.0,14.0,62,0.00,,,0.00,,2013-01-11 10:22:00,
2013-01-11 05:32:00,47.0,36.0,30.01,SE,143,2.0,8.0,66,0.00,,,0.00,,2013-01-11 10:32:00,
2013-01-11 05:42:00,47.0,36.0,30.01,SE,143,2.0,8.0,66,0.00,,,0.00,,2013-01-11 10:42:00,
2013-01-11 05:53:00,47.0,37.0,30.02,ESE,121,10.0,13.0,67,0.00,,,0.00,,2013-01-11 10:53:00,
2013-01-11 06:03:00,48.0,37.0,30.01,ESE,106,2.0,14.0,66,0.00,,,0.00,,2013-01-11 11:03:00,
2013-01-11 06:12:00,48.0,37.0,30.01,ESE,106,2.0,14.0,66,0.00,,,0.00,,2013-01-11 11:12:00,
2013-01-11 06:22:00,49.0,38.0,30.00,WSW,237,7.0,14.0,66,0.00,,,0.00,,2013-01-11 11:22:00,
2013-01-11 06:33:00,48.0,39.0,30.00,ESE,117,3.0,11.0,71,0.02,,,0.02,,2013-01-11 11:33:00,
2013-01-11 06:42:00,48.0,39.0,30.00,ESE,117,3.0,11.0,71,0.02,,,0.02,,2013-01-11 11:42:00,
2013-01-11 06:53:00,46.0,40.0,29.99,SSE,156,8.0,15.0,79,0.04,,,0.04,,2013-01-11 11:53:00,
2013-01-11 07:03:00,46.0,41.0,29.98,SSE,165,6.0,12.0,81,0.05,,,0.05,,2013-01-11 12:03:00,
2013-01-11 07:12:00,46.0,41.0,29.98,SSE,165,6.0,12.0,81,0.05,,,0.05,,2013-01-11 12:12:00,
2013-01-11 07:22:00,47.0,42.0,29.97,SSE,155,4.0,15.0,82,0.05,,,0.05,,2013-01-11 12:22:00,
2013-01-11 07:33:00,48.0,43.0,29.98,SSE,159,10.0,13.0,82,0.04,,,0.05,,2013-01-11 12:33:00,
2013-01-11 07:42:00,48.0,43.0,29.98,SSE,159,10.0,13.0,82,0.04,,,0.05,,2013-01-11 12:42:00,
2013-01-11 07:53:00,48.0,42.0,29.96,SSE,157,11.0,15.0,81,0.04,,,0.05,,2013-01-11 12:53:00,
2013-01-11 08:03:00,49.0,43.0,29.95,SSE,168,12.0,15.0,79,0.01,,,0.05,,2013-01-11 13:03:00,
2013-01-11 08:13:00,49.0,43.0,29.95,SSE,168,12.0,15.0,79,0.01,,,0.05,,2013-01-11 13:13:00,
2013-01-11 08:22:00,50.0,43.0,29.95,SSE,161,6.0,15.0,76,0.01,,,0.05,,2013-01-11 13:22:00,
2013-01-11 08:33:00,51.0,44.0,29.94,SSE,155,7.0,15.0,76,0.00,,,0.05,,2013-01-11 13:33:00,
2013-01-11 08:42:00,51.0,44.0,29.94,SSE,155,7.0,15.0,76,0.00,,,0.05,,2013-01-11 13:42:00,
2013-01-11 08:53:00,50.0,43.0,29.95,SE,146,10.0,15.0,76,0.00,,,0.05,,2013-01-11 13:53:00,
2013-01-11 09:03:00,50.0,43.0,29.95,SE,146,10.0,15.0,76,0.00,,,0.05,,2013-01-11 14:03:00,
2013-01-11 09:12:00,50.0,43.0,29.95,SE,146,10.0,15.0,76,0.00,,,0.05,,2013-01-11 14:12:00,
2013-01-11 09:23:00,48.0,44.0,29.95,East,99,7.0,13.0,85,0.14,,,0.18,,2013-01-11 14:23:00,
2013-01-11 09:33:00,48.0,44.0,29.93,SE,131,3.0,14.0,87,0.15,,,0.20,,2013-01-11 14:33:00,
2013-01-11 09:43:00,47.0,44.0,29.93,SSE,159,4.0,14.0,89,0.19,,,0.24,,2013-01-11 14:43:00,
2013-01-11 09:53:00,47.0,44.0,29.93,SSE,159,4.0,14.0,89,0.19,,,0.24,,2013-01-11 14:53:00,
2013-01-11 10:03:00,47.0,44.0,29.92,South,179,4.0,10.0,89,0.21,,,0.26,,2013-01-11 15:03:00,
2013-01-11 10:13:00,48.0,45.0,29.92,South,175,2.0,11.0,89,0.24,,,0.28,,2013-01-11 15:13:00,
2013-01-11 10:23:00,48.0,45.0,29.92,South,175,2.0,11.0,89,0.24,,,0.28,,2013-01-11 15:23:00,
2013-01-11 10:33:00,48.0,45.0,29.92,SE,132,5.0,12.0,89,0.12,,,0.31,,2013-01-11 15:33:00,
2013-01-11 10:43:00,48.0,45.0,29.92,SE,132,5.0,12.0,89,0.12,,,0.31,,2013-01-11 15:43:00,
2013-01-11 10:53:00,48.0,45.0,29.91,WSW,239,1.0,12.0,91,0.20,,,0.40,,2013-01-11 15:53:00,
2013-01-11 11:03:00,48.0,45.0,29.91,South,186,4.0,7.0,91,0.22,,,0.46,,2013-01-11 16:03:00,
2013-01-11 11:12:00,48.0,46.0,29.92,SE,145,4.0,7.0,92,0.28,,,0.52,,2013-01-11 16:12:00,
2013-01-11 11:23:00,48.0,46.0,29.92,SE,145,4.0,7.0,92,0.28,,,0.52,,2013-01-11 16:23:00,
2013-01-11 11:33:00,49.0,47.0,29.89,SSW,209,7.0,10.0,93,0.23,,,0.52,,2013-01-11 16:33:00,
2013-01-11 11:43:00,49.0,47.0,29.89,SSW,209,7.0,10.0,93,0.23,,,0.52,,2013-01-11 16:43:00,
2013-01-11 11:53:00,49.0,46.0,29.88,SSE,167,7.0,14.0,91,0.24,,,0.53,,2013-01-11 16:53:00,
2013-01-11 12:03:00,50.0,48.0,29.87,SSW,195,10.0,14.0,92,0.11,,,0.53,,2013-01-11 17:03:00,
2013-01-11 12:12:00,50.0,47.0,29.82,SSE,168,13.0,16.0,91,0.12,,,0.54,,2013-01-11 17:12:00,
2013-01-11 12:22:00,50.0,47.0,29.82,SSE,168,13.0,16.0,91,0.12,,,0.54,,2013-01-11 17:22:00,
2013-01-11 12:33:00,50.0,47.0,29.80,South,186,5.0,15.0,91,0.02,,,0.54,,2013-01-11 17:33:00,
2013-01-11 12:43:00,50.0,47.0,29.80,South,186,5.0,15.0,91,0.02,,,0.54,,2013-01-11 17:43:00,
2013-01-11 12:53:00,51.0,48.0,29.78,SSW,192,6.0,15.0,90,0.02,,,0.54,,2013-01-11 17:53:00,
2013-01-11 13:03:00,52.0,49.0,29.78,SSE,152,6.0,13.0,91,0.01,,,0.54,,2013-01-11 18:03:00,
2013-01-11 13:13:00,52.0,49.0,29.78,SSE,152,6.0,13.0,91,0.01,,,0.54,,2013-01-11 18:13:00,
2013-01-11 13:23:00,54.0,51.0,29.79,SSE,165,9.0,14.0,88,0.01,,,0.54,,2013-01-11 18:23:00,
2013-01-11 13:33:00,54.0,51.0,29.80,West,259,3.0,11.0,88,0.00,,,0.54,,2013-01-11 18:33:00,
2013-01-11 13:43:00,54.0,51.0,29.80,West,259,3.0,11.0,88,0.00,,,0.54,,2013-01-11 18:43:00,
2013-01-11 13:53:00,54.0,51.0,29.82,WSW,253,6.0,11.0,88,0.00,,,0.54,,2013-01-11 18:53:00,
2013-01-11 14:03:00,54.0,51.0,29.82,South,182,3.0,12.0,88,0.00,,,0.54,,2013-01-11 19:03:00,
2013-01-11 14:12:00,54.0,51.0,29.82,South,182,3.0,12.0,88,0.00,,,0.54,,2013-01-11 19:12:00,
2013-01-11 14:22:00,54.0,51.0,29.82,South,190,2.0,12.0,88,0.00,,,0.54,,2013-01-11 19:22:00,
2013-01-11 14:33:00,54.0,51.0,29.82,SW,217,2.0,9.0,88,0.00,,,0.54,,2013-01-11 19:33:00,
2013-01-11 14:43:00,54.0,51.0,29.82,SW,217,2.0,9.0,88,0.00,,,0.54,,2013-01-11 19:43:00,
2013-01-11 14:54:00,54.0,51.0,29.82,SW,221,9.0,10.0,88,0.00,,,0.54,,2013-01-11 19:54:00,
2013-01-11 15:03:00,54.0,51.0,29.83,WSW,242,3.0,6.0,88,0.00,,,0.54,,2013-01-11 20:03:00,
2013-01-11 15:12:00,54.0,51.0,29.83,WSW,242,3.0,6.0,88,0.00,,,0.54,,2013-01-11 20:12:00,
2013-01-11 15:22:00,55.0,51.0,29.83,SSW,213,7.0,10.0,87,0.00,,,0.54,,2013-01-11 20:22:00,
2013-01-11 15:33:00,56.0,52.0,29.84,West,265,1.0,8.0,85,0.00,,,0.54,,2013-01-11 20:33:00,
2013-01-11 15:43:00,56.0,52.0,29.84,West,265,1.0,8.0,85,0.00,,,0.54,,2013-01-11 20:43:00,
2013-01-11 15:53:00,57.0,52.0,29.83,WNW,286,5.0,10.0,82,0.00,,,0.54,,2013-01-11 20:53:00,
2013-01-11 16:03:00,58.0,52.0,29.84,South,180,3.0,9.0,81,0.00,,,0.54,,2013-01-11 21:03:00,
2013-01-11 16:12:00,58.0,52.0,29.85,SSW,206,3.0,10.0,80,0.00,,,0.54,,2013-01-11 21:12:00,
2013-01-11 16:23:00,58.0,52.0,29.85,SSW,206,3.0,10.0,80,0.00,,,0.54,,2013-01-11 21:23:00,
2013-01-11 16:33:00,58.0,52.0,29.85,WNW,288,2.0,10.0,79,0.00,,,0.54,,2013-01-11 21:33:00,
2013-01-11 16:42:00,58.0,52.0,29.85,WNW,288,2.0,10.0,79,0.00,,,0.54,,2013-01-11 21:42:00,
2013-01-11 16:53:00,58.0,51.0,29.85,WSW,247,3.0,10.0,78,0.00,,,0.54,,2013-01-11 21:53:00,
2013-01-11 17:03:00,58.0,51.0,29.85,SW,232,5.0,8.0,78,0.00,,,0.54,,2013-01-11 22:03:00,
2013-01-11 17:12:00,57.0,51.0,29.86,SW,232,2.0,10.0,80,0.00,,,0.54,,2013-01-11 22:12:00,
2013-01-11 17:22:00,57.0,51.0,29.86,SW,232,2.0,10.0,80,0.00,,,0.54,,2013-01-11 22:22:00,
2013-01-11 17:33:00,56.0,50.0,29.86,WSW,238,3.0,9.0,81,0.00,,,0.54,,2013-01-11 22:33:00,
2013-01-11 17:42:00,56.0,50.0,29.86,WSW,238,3.0,9.0,81,0.00,,,0.54,,2013-01-11 22:42:00,
2013-01-11 17:53:00,56.0,50.0,29.87,SW,230,3.0,9.0,81,0.00,,,0.54,,2013-01-11 22:53:00,
2013-01-11 18:02:00,56.0,51.0,29.88,SSE,157,5.0,5.0,82,0.00,,,0.54,,2013-01-11 23:02:00,
2013-01-11 18:13:00,56.0,51.0,29.88,SSE,157,5.0,5.0,82,0.00,,,0.54,,2013-01-11 23:13:00,
2013-01-11 18:23:00,55.0,50.0,29.88,SW,222,3.0,5.0,83,0.00,,,0.54,,2013-01-11 23:23:00,
2013-01-11 18:32:00,55.0,50.0,29.88,SW,223,3.0,5.0,83,0.00,,,0.54,,2013-01-11 23:32:00,
2013-01-11 18:43:00,55.0,50.0,29.88,SW,223,3.0,5.0,83,0.00,,,0.54,,2013-01-11 23:43:00,
2013-01-11 18:53:00,55.0,50.0,29.89,SSW,210,1.0,5.0,83,0.00,,,0.54,,2013-01-11 23:53:00,
2013-01-11 19:02:00,55.0,50.0,29.89,SW,232,1.0,5.0,83,0.00,,,0.54,,2013-01-12 00:02:00,
2013-01-11 19:12:00,55.0,50.0,29.90,SW,215,1.0,6.0,83,0.00,,,0.54,,2013-01-12 00:12:00,
2013-01-11 19:23:00,55.0,50.0,29.90,SW,215,1.0,6.0,83,0.00,,,0.54,,2013-01-12 00:23:00,
2013-01-11 19:33:00,55.0,50.0,29.90,SSW,202,1.0,3.0,84,0.00,,,0.54,,2013-01-12 00:33:00,
2013-01-11 19:43:00,55.0,50.0,29.90,SSW,202,1.0,3.0,84,0.00,,,0.54,,2013-01-12 00:43:00,
2013-01-11 19:53:00,54.0,50.0,29.90,SSW,198,0.0,5.0,85,0.00,,,0.54,,2013-01-12 00:53:00,
2013-01-11 20:02:00,54.0,50.0,29.91,SW,216,1.0,3.0,85,0.00,,,0.54,,2013-01-12 01:02:00,
2013-01-11 20:12:00,54.0,50.0,29.91,SW,216,1.0,3.0,85,0.00,,,0.54,,2013-01-12 01:12:00,
2013-01-11 20:22:00,53.0,49.0,29.91,South,173,2.0,5.0,86,0.00,,,0.54,,2013-01-12 01:22:00,
2013-01-11 20:33:00,53.0,49.0,29.91,SW,225,3.0,4.0,87,0.00,,,0.54,,2013-01-12 01:33:00,
2013-01-11 20:43:00,53.0,49.0,29.91,SW,225,3.0,4.0,87,0.00,,,0.54,,2013-01-12 01:43:00,
2013-01-11 20:53:00,52.0,49.0,29.91,South,187,1.0,5.0,88,0.00,,,0.54,,2013-01-12 01:53:00,
2013-01-11 21:02:00,52.0,49.0,29.91,SW,235,1.0,3.0,88,0.00,,,0.54,,2013-01-12 02:02:00,
2013-01-11 21:12:00,52.0,49.0,29.91,SW,235,1.0,3.0,88,0.00,,,0.54,,2013-01-12 02:12:00,
2013-01-11 21:22:00,52.0,49.0,29.91,SSE,148,2.0,5.0,88,0.00,,,0.54,,2013-01-12 02:22:00,
2013-01-11 21:33:00,52.0,49.0,29.91,South,190,3.0,5.0,88,0.00,,,0.54,,2013-01-12 02:33:00,
2013-01-11 21:43:00,52.0,49.0,29.91,South,190,3.0,5.0,88,0.00,,,0.54,,2013-01-12 02:43:00,
2013-01-11 21:53:00,52.0,48.0,29.91,SSW,198,2.0,6.0,87,0.00,,,0.54,,2013-01-12 02:53:00,
2013-01-11 22:03:00,52.0,48.0,29.90,SSW,213,3.0,6.0,87,0.00,,,0.54,,2013-01-12 03:03:00,
2013-01-11 22:12:00,52.0,48.0,29.90,SSW,213,3.0,6.0,87,0.00,,,0.54,,2013-01-12 03:12:00,
2013-01-11 22:22:00,52.0,48.0,29.91,SSE,155,1.0,7.0,87,0.00,,,0.54,,2013-01-12 03:22:00,
2013-01-11 22:33:00,52.0,48.0,29.90,SSW,200,5.0,5.0,87,0.00,,,0.54,,2013-01-12 03:33:00,
2013-01-11 22:43:00,52.0,48.0,29.90,SSW,200,5.0,5.0,87,0.00,,,0.54,,2013-01-12 03:43:00,
2013-01-11 22:53:00,52.0,48.0,29.90,WSW,244,2.0,9.0,85,0.00,,,0.54,,2013-01-12 03:53:00,
2013-01-11 23:02:00,52.0,48.0,29.89,SSE,161,2.0,5.0,85,0.00,,,0.54,,2013-01-12 04:02:00,
2013-01-11 23:12:00,52.0,48.0,29.89,SSE,161,2.0,5.0,85,0.00,,,0.54,,2013-01-12 04:12:00,
2013-01-11 23:22:00,52.0,48.0,29.89,SW,221,6.0,7.0,85,0.00,,,0.54,,2013-01-12 04:22:00,
2013-01-11 23:32:00,53.0,49.0,29.89,SSW,213,3.0,6.0,85,0.00,,,0.54,,2013-01-12 04:32:00,
2013-01-11 23:42:00,53.0,49.0,29.89,SSW,213,3.0,6.0,85,0.00,,,0.54,,2013-01-12 04:42:00,
2013-01-11 23:52:00,53.0,48.0,29.90,SE,146,4.0,10.0,84,0.00,,,0.54,,2013-01-12 04:52:00,